sensor_id;sensor_type;location;lat;lon;timestamp;P1;durP1;ratioP1;P2;durP2;ratioP2
67051;SDS011;53957;47.222;18.670;2022-09-11T00:00:46;0.60;;;0.60;;
67051;SDS011;53957;47.222;18.670;2022-09-11T00:03:50;0.65;;;0.65;;
67051;SDS011;53957;47.222;18.670;2022-09-11T00:06:53;0.93;;;0.62;;
67051;SDS011;53957;47.222;18.670;2022-09-11T00:09:56;0.80;;;0.80;;
67051;SDS011;53957;47.222;18.670;2022-09-11T00:12:59;0.60;;;0.60;;
67051;SDS011;53957;47.222;18.670;2022-09-11T00:16:22;0.60;;;0.60;;
67051;SDS011;53957;47.222;18.670;2022-09-11T00:19:28;0.75;;;0.60;;
67051;SDS011;53957;47.222;18.670;2022-09-11T00:22:31;0.68;;;0.68;;
67051;SDS011;53957;47.222;18.670;2022-09-11T00:25:35;1.58;;;0.70;;
67051;SDS011;53957;47.222;18.670;2022-09-11T00:28:42;0.70;;;0.70;;
67051;SDS011;53957;47.222;18.670;2022-09-11T00:31:45;0.70;;;0.70;;
67051;SDS011;53957;47.222;18.670;2022-09-11T00:34:49;2.47;;;0.80;;
67051;SDS011;53957;47.222;18.670;2022-09-11T00:37:52;0.80;;;0.60;;
67051;SDS011;53957;47.222;18.670;2022-09-11T00:40:55;0.60;;;0.60;;
67051;SDS011;53957;47.222;18.670;2022-09-11T00:44:07;0.60;;;0.60;;
67051;SDS011;53957;47.222;18.670;2022-09-11T00:47:29;0.50;;;0.50;;
67051;SDS011;53957;47.222;18.670;2022-09-11T00:50:32;0.70;;;0.70;;
67051;SDS011;53957;47.222;18.670;2022-09-11T00:53:35;0.70;;;0.70;;
67051;SDS011;53957;47.222;18.670;2022-09-11T00:56:40;1.60;;;0.80;;
67051;SDS011;53957;47.222;18.670;2022-09-11T05:11:34;0.70;;;0.70;;
67051;SDS011;53957;47.222;18.670;2022-09-11T05:14:38;1.00;;;0.95;;
67051;SDS011;53957;47.222;18.670;2022-09-11T05:17:41;0.80;;;0.80;;
67051;SDS011;53957;47.222;18.670;2022-09-11T05:20:44;0.77;;;0.77;;
67051;SDS011;53957;47.222;18.670;2022-09-11T05:23:48;0.88;;;0.65;;
67051;SDS011;53957;47.222;18.670;2022-09-11T05:26:53;0.70;;;0.70;;
67051;SDS011;53957;47.222;18.670;2022-09-11T05:29:59;0.68;;;0.68;;
67051;SDS011;53957;47.222;18.670;2022-09-11T05:33:03;0.73;;;0.70;;
67051;SDS011;53957;47.222;18.670;2022-09-11T05:36:08;0.70;;;0.70;;
67051;SDS011;53957;47.222;18.670;2022-09-11T05:39:13;0.60;;;0.60;;
67051;SDS011;53957;47.222;18.670;2022-09-11T05:42:20;0.60;;;0.60;;
67051;SDS011;53957;47.222;18.670;2022-09-11T05:45:24;0.70;;;0.70;;
67051;SDS011;53957;47.222;18.670;2022-09-11T05:48:28;0.80;;;0.80;;
67051;SDS011;53957;47.222;18.670;2022-09-11T05:51:33;0.70;;;0.70;;
67051;SDS011;53957;47.222;18.670;2022-09-11T05:54:39;0.70;;;0.70;;
67051;SDS011;53957;47.222;18.670;2022-09-11T05:57:42;2.40;;;0.80;;
67051;SDS011;53957;47.222;18.670;2022-09-11T06:00:46;0.65;;;0.60;;
67051;SDS011;53957;47.222;18.670;2022-09-11T06:03:50;0.70;;;0.70;;
67051;SDS011;53957;47.222;18.670;2022-09-11T06:06:56;0.80;;;0.80;;
67051;SDS011;53957;47.222;18.670;2022-09-11T06:10:01;0.90;;;0.70;;
67051;SDS011;53957;47.222;18.670;2022-09-11T06:16:57;0.70;;;0.70;;
67051;SDS011;53957;47.222;18.670;2022-09-11T06:20:00;0.90;;;0.70;;
67051;SDS011;53957;47.222;18.670;2022-09-11T06:23:13;1.65;;;0.73;;
67051;SDS011;53957;47.222;18.670;2022-09-11T06:26:26;0.57;;;0.57;;
67051;SDS011;53957;47.222;18.670;2022-09-11T06:29:32;0.80;;;0.80;;
67051;SDS011;53957;47.222;18.670;2022-09-11T06:32:41;0.77;;;0.77;;
67051;SDS011;53957;47.222;18.670;2022-09-11T06:35:55;0.62;;;0.62;;
67051;SDS011;53957;47.222;18.670;2022-09-11T06:39:01;0.60;;;0.60;;
67051;SDS011;53957;47.222;18.670;2022-09-11T06:42:05;0.80;;;0.80;;
67051;SDS011;53957;47.222;18.670;2022-09-11T06:48:26;0.65;;;0.65;;
67051;SDS011;53957;47.222;18.670;2022-09-11T06:51:35;0.70;;;0.70;;
67051;SDS011;53957;47.222;18.670;2022-09-11T06:54:38;0.62;;;0.62;;
67051;SDS011;53957;47.222;18.670;2022-09-11T06:57:43;1.05;;;0.70;;
67051;SDS011;53957;47.222;18.670;2022-09-11T07:01:00;0.60;;;0.60;;
67051;SDS011;53957;47.222;18.670;2022-09-11T07:04:30;1.83;;;0.70;;
67051;SDS011;53957;47.222;18.670;2022-09-11T07:07:33;0.70;;;0.70;;
67051;SDS011;53957;47.222;18.670;2022-09-11T07:10:37;0.70;;;0.70;;
67051;SDS011;53957;47.222;18.670;2022-09-11T07:13:41;0.65;;;0.65;;
67051;SDS011;53957;47.222;18.670;2022-09-11T07:17:05;1.50;;;1.40;;
67051;SDS011;53957;47.222;18.670;2022-09-11T07:20:09;0.60;;;0.60;;
67051;SDS011;53957;47.222;18.670;2022-09-11T07:23:41;1.27;;;0.80;;
67051;SDS011;53957;47.222;18.670;2022-09-11T07:27:28;0.98;;;0.62;;
67051;SDS011;53957;47.222;18.670;2022-09-11T07:30:34;0.60;;;0.60;;
67051;SDS011;53957;47.222;18.670;2022-09-11T07:37:28;0.75;;;0.75;;
67051;SDS011;53957;47.222;18.670;2022-09-11T07:41:13;0.60;;;0.60;;
67051;SDS011;53957;47.222;18.670;2022-09-11T07:44:19;0.77;;;0.77;;
67051;SDS011;53957;47.222;18.670;2022-09-11T07:47:25;0.77;;;0.77;;
67051;SDS011;53957;47.222;18.670;2022-09-11T07:50:53;0.73;;;0.70;;
67051;SDS011;53957;47.222;18.670;2022-09-11T07:54:21;0.70;;;0.70;;
67051;SDS011;53957;47.222;18.670;2022-09-11T07:57:25;1.08;;;0.70;;
67051;SDS011;53957;47.222;18.670;2022-09-11T08:00:39;0.60;;;0.60;;
67051;SDS011;53957;47.222;18.670;2022-09-11T08:03:44;0.60;;;0.60;;
67051;SDS011;53957;47.222;18.670;2022-09-11T08:07:09;0.62;;;0.62;;
67051;SDS011;53957;47.222;18.670;2022-09-11T08:10:56;1.08;;;0.60;;
67051;SDS011;53957;47.222;18.670;2022-09-11T08:14:04;0.88;;;0.70;;
67051;SDS011;53957;47.222;18.670;2022-09-11T08:17:09;0.98;;;0.70;;
67051;SDS011;53957;47.222;18.670;2022-09-11T08:20:33;0.60;;;0.60;;
67051;SDS011;53957;47.222;18.670;2022-09-11T08:23:45;0.95;;;0.77;;
67051;SDS011;53957;47.222;18.670;2022-09-11T08:27:08;0.70;;;0.60;;
67051;SDS011;53957;47.222;18.670;2022-09-11T08:30:12;0.77;;;0.77;;
67051;SDS011;53957;47.222;18.670;2022-09-11T08:33:24;0.80;;;0.70;;
67051;SDS011;53957;47.222;18.670;2022-09-11T08:36:31;4.75;;;0.85;;
67051;SDS011;53957;47.222;18.670;2022-09-11T08:39:34;0.60;;;0.60;;
67051;SDS011;53957;47.222;18.670;2022-09-11T08:42:40;0.40;;;0.40;;
67051;SDS011;53957;47.222;18.670;2022-09-11T08:45:45;0.88;;;0.60;;
67051;SDS011;53957;47.222;18.670;2022-09-11T08:52:18;0.80;;;0.80;;
67051;SDS011;53957;47.222;18.670;2022-09-11T09:09:47;0.55;;;0.55;;
67051;SDS011;53957;47.222;18.670;2022-09-11T09:16:59;1.50;;;0.50;;
67051;SDS011;53957;47.222;18.670;2022-09-11T09:20:11;4.95;;;1.20;;
67051;SDS011;53957;47.222;18.670;2022-09-11T09:23:24;0.75;;;0.60;;
67051;SDS011;53957;47.222;18.670;2022-09-11T09:26:37;0.90;;;0.80;;
67051;SDS011;53957;47.222;18.670;2022-09-11T09:29:44;0.50;;;0.50;;
67051;SDS011;53957;47.222;18.670;2022-09-11T09:36:29;0.75;;;0.70;;
67051;SDS011;53957;47.222;18.670;2022-09-11T09:39:36;1.00;;;0.70;;
67051;SDS011;53957;47.222;18.670;2022-09-11T09:49:28;3.20;;;0.57;;
67051;SDS011;53957;47.222;18.670;2022-09-11T09:52:34;2.20;;;1.00;;
67051;SDS011;53957;47.222;18.670;2022-09-11T09:55:58;1.95;;;1.15;;
67051;SDS011;53957;47.222;18.670;2022-09-11T09:59:12;0.93;;;0.75;;
67051;SDS011;53957;47.222;18.670;2022-09-11T10:03:37;2.58;;;0.70;;
67051;SDS011;53957;47.222;18.670;2022-09-11T10:06:33;0.60;;;0.60;;
67051;SDS011;53957;47.222;18.670;2022-09-11T10:09:56;0.73;;;0.73;;
67051;SDS011;53957;47.222;18.670;2022-09-11T10:13:42;0.62;;;0.62;;
67051;SDS011;53957;47.222;18.670;2022-09-11T10:16:54;2.37;;;0.68;;
67051;SDS011;53957;47.222;18.670;2022-09-11T10:20:22;0.65;;;0.60;;
67051;SDS011;53957;47.222;18.670;2022-09-11T10:23:28;1.27;;;0.70;;
67051;SDS011;53957;47.222;18.670;2022-09-11T10:27:14;2.53;;;0.60;;
67051;SDS011;53957;47.222;18.670;2022-09-11T10:30:34;0.50;;;0.50;;
67051;SDS011;53957;47.222;18.670;2022-09-11T10:33:40;0.68;;;0.68;;
67051;SDS011;53957;47.222;18.670;2022-09-11T10:36:59;0.85;;;0.85;;
67051;SDS011;53957;47.222;18.670;2022-09-11T10:40:19;0.57;;;0.57;;
67051;SDS011;53957;47.222;18.670;2022-09-11T10:43:25;2.08;;;0.62;;
67051;SDS011;53957;47.222;18.670;2022-09-11T10:50:19;0.55;;;0.55;;
67051;SDS011;53957;47.222;18.670;2022-09-11T10:53:25;0.60;;;0.60;;
67051;SDS011;53957;47.222;18.670;2022-09-11T10:56:28;0.70;;;0.70;;
67051;SDS011;53957;47.222;18.670;2022-09-11T10:59:37;0.60;;;0.60;;
67051;SDS011;53957;47.222;18.670;2022-09-11T11:27:23;0.50;;;0.50;;
67051;SDS011;53957;47.222;18.670;2022-09-11T11:34:24;0.73;;;0.73;;
67051;SDS011;53957;47.222;18.670;2022-09-11T11:37:34;1.37;;;0.73;;
67051;SDS011;53957;47.222;18.670;2022-09-11T11:40:46;0.50;;;0.50;;
67051;SDS011;53957;47.222;18.670;2022-09-11T11:43:54;0.70;;;0.70;;
67051;SDS011;53957;47.222;18.670;2022-09-11T11:47:05;2.50;;;0.60;;
67051;SDS011;53957;47.222;18.670;2022-09-11T11:53:35;3.80;;;0.62;;
67051;SDS011;53957;47.222;18.670;2022-09-11T11:57:10;0.50;;;0.50;;
67051;SDS011;53957;47.222;18.670;2022-09-11T12:00:20;0.52;;;0.50;;
67051;SDS011;53957;47.222;18.670;2022-09-11T12:03:41;0.60;;;0.60;;
67051;SDS011;53957;47.222;18.670;2022-09-11T12:06:53;0.60;;;0.60;;
67051;SDS011;53957;47.222;18.670;2022-09-11T12:09:57;0.60;;;0.60;;
67051;SDS011;53957;47.222;18.670;2022-09-11T12:13:33;0.77;;;0.77;;
67051;SDS011;53957;47.222;18.670;2022-09-11T12:16:42;0.65;;;0.65;;
67051;SDS011;53957;47.222;18.670;2022-09-11T12:27:30;0.70;;;0.70;;
67051;SDS011;53957;47.222;18.670;2022-09-11T12:30:53;0.57;;;0.57;;
67051;SDS011;53957;47.222;18.670;2022-09-11T12:38:01;0.70;;;0.60;;
67051;SDS011;53957;47.222;18.670;2022-09-11T12:48:13;0.62;;;0.50;;
67051;SDS011;53957;47.222;18.670;2022-09-11T12:57:49;1.33;;;0.70;;
67051;SDS011;53957;47.222;18.670;2022-09-11T13:01:06;0.52;;;0.52;;
67051;SDS011;53957;47.222;18.670;2022-09-11T13:04:36;0.40;;;0.40;;
67051;SDS011;53957;47.222;18.670;2022-09-11T13:07:44;0.60;;;0.60;;
67051;SDS011;53957;47.222;18.670;2022-09-11T13:18:29;0.57;;;0.57;;
67051;SDS011;53957;47.222;18.670;2022-09-11T13:21:39;0.60;;;0.60;;
67051;SDS011;53957;47.222;18.670;2022-09-11T13:24:43;0.82;;;0.82;;
67051;SDS011;53957;47.222;18.670;2022-09-11T13:27:48;0.60;;;0.60;;
67051;SDS011;53957;47.222;18.670;2022-09-11T13:30:55;0.60;;;0.60;;
67051;SDS011;53957;47.222;18.670;2022-09-11T13:34:25;0.90;;;0.70;;
67051;SDS011;53957;47.222;18.670;2022-09-11T13:40:42;0.80;;;0.50;;
67051;SDS011;53957;47.222;18.670;2022-09-11T13:43:52;1.00;;;0.50;;
67051;SDS011;53957;47.222;18.670;2022-09-11T13:54:55;1.55;;;0.55;;
67051;SDS011;53957;47.222;18.670;2022-09-11T13:58:51;0.57;;;0.57;;
67051;SDS011;53957;47.222;18.670;2022-09-11T14:01:50;0.60;;;0.60;;
67051;SDS011;53957;47.222;18.670;2022-09-11T14:05:45;0.82;;;0.73;;
67051;SDS011;53957;47.222;18.670;2022-09-11T14:09:12;0.75;;;0.70;;
67051;SDS011;53957;47.222;18.670;2022-09-11T14:12:25;0.50;;;0.50;;
67051;SDS011;53957;47.222;18.670;2022-09-11T14:15:37;0.55;;;0.55;;
67051;SDS011;53957;47.222;18.670;2022-09-11T14:18:45;1.83;;;0.73;;
67051;SDS011;53957;47.222;18.670;2022-09-11T14:29:04;0.60;;;0.60;;
67051;SDS011;53957;47.222;18.670;2022-09-11T14:32:32;0.60;;;0.60;;
67051;SDS011;53957;47.222;18.670;2022-09-11T14:36:09;3.45;;;0.85;;
67051;SDS011;53957;47.222;18.670;2022-09-11T14:39:37;0.50;;;0.50;;
67051;SDS011;53957;47.222;18.670;2022-09-11T14:43:36;0.70;;;0.60;;
67051;SDS011;53957;47.222;18.670;2022-09-11T14:46:40;0.70;;;0.70;;
67051;SDS011;53957;47.222;18.670;2022-09-11T14:49:44;3.10;;;0.55;;
67051;SDS011;53957;47.222;18.670;2022-09-11T14:52:48;1.60;;;0.65;;
67051;SDS011;53957;47.222;18.670;2022-09-11T14:55:59;0.60;;;0.60;;
67051;SDS011;53957;47.222;18.670;2022-09-11T15:02:39;0.60;;;0.60;;
67051;SDS011;53957;47.222;18.670;2022-09-11T15:05:50;0.60;;;0.60;;
67051;SDS011;53957;47.222;18.670;2022-09-11T15:08:56;0.68;;;0.68;;
67051;SDS011;53957;47.222;18.670;2022-09-11T15:12:00;0.52;;;0.52;;
67051;SDS011;53957;47.222;18.670;2022-09-11T15:15:03;1.02;;;0.60;;
67051;SDS011;53957;47.222;18.670;2022-09-11T15:18:09;0.50;;;0.50;;
67051;SDS011;53957;47.222;18.670;2022-09-11T15:21:15;0.60;;;0.60;;
67051;SDS011;53957;47.222;18.670;2022-09-11T15:24:21;0.60;;;0.60;;
67051;SDS011;53957;47.222;18.670;2022-09-11T15:27:25;0.57;;;0.57;;
67051;SDS011;53957;47.222;18.670;2022-09-11T15:30:30;0.60;;;0.60;;
67051;SDS011;53957;47.222;18.670;2022-09-11T15:33:35;12.00;;;1.05;;
67051;SDS011;53957;47.222;18.670;2022-09-11T15:36:39;0.50;;;0.50;;
67051;SDS011;53957;47.222;18.670;2022-09-11T15:39:43;0.50;;;0.50;;
67051;SDS011;53957;47.222;18.670;2022-09-11T15:42:46;0.57;;;0.57;;
67051;SDS011;53957;47.222;18.670;2022-09-11T15:45:51;0.85;;;0.60;;
67051;SDS011;53957;47.222;18.670;2022-09-11T15:48:55;0.60;;;0.60;;
67051;SDS011;53957;47.222;18.670;2022-09-11T15:52:00;2.47;;;0.65;;
67051;SDS011;53957;47.222;18.670;2022-09-11T15:55:07;0.60;;;0.60;;
67051;SDS011;53957;47.222;18.670;2022-09-11T15:58:11;0.60;;;0.60;;
67051;SDS011;53957;47.222;18.670;2022-09-11T16:01:19;2.80;;;1.37;;
67051;SDS011;53957;47.222;18.670;2022-09-11T16:04:26;0.77;;;0.60;;
67051;SDS011;53957;47.222;18.670;2022-09-11T16:07:30;0.52;;;0.52;;
67051;SDS011;53957;47.222;18.670;2022-09-11T16:10:35;0.50;;;0.50;;
67051;SDS011;53957;47.222;18.670;2022-09-11T16:20:26;0.62;;;0.62;;
67051;SDS011;53957;47.222;18.670;2022-09-11T16:23:33;1.12;;;1.02;;
67051;SDS011;53957;47.222;18.670;2022-09-11T16:26:42;0.62;;;0.60;;
67051;SDS011;53957;47.222;18.670;2022-09-11T16:29:58;0.50;;;0.50;;
67051;SDS011;53957;47.222;18.670;2022-09-11T16:33:48;0.60;;;0.60;;
67051;SDS011;53957;47.222;18.670;2022-09-11T16:36:52;0.60;;;0.60;;
67051;SDS011;53957;47.222;18.670;2022-09-11T16:39:55;0.60;;;0.60;;
67051;SDS011;53957;47.222;18.670;2022-09-11T16:46:49;0.73;;;0.73;;
67051;SDS011;53957;47.222;18.670;2022-09-11T16:49:53;0.60;;;0.60;;
67051;SDS011;53957;47.222;18.670;2022-09-11T16:53:18;0.73;;;0.73;;
67051;SDS011;53957;47.222;18.670;2022-09-11T16:56:22;0.50;;;0.50;;
67051;SDS011;53957;47.222;18.670;2022-09-11T16:59:26;0.60;;;0.60;;
67051;SDS011;53957;47.222;18.670;2022-09-11T17:06:06;0.70;;;0.70;;
67051;SDS011;53957;47.222;18.670;2022-09-11T17:09:10;0.80;;;0.80;;
67051;SDS011;53957;47.222;18.670;2022-09-11T17:12:13;0.82;;;0.80;;
67051;SDS011;53957;47.222;18.670;2022-09-11T17:15:19;0.70;;;0.70;;
67051;SDS011;53957;47.222;18.670;2022-09-11T17:21:52;3.50;;;0.60;;
67051;SDS011;53957;47.222;18.670;2022-09-11T17:24:56;1.27;;;0.65;;
67051;SDS011;53957;47.222;18.670;2022-09-11T17:28:04;0.90;;;0.90;;
67051;SDS011;53957;47.222;18.670;2022-09-11T17:31:09;0.70;;;0.70;;
67051;SDS011;53957;47.222;18.670;2022-09-11T17:34:15;0.80;;;0.80;;
67051;SDS011;53957;47.222;18.670;2022-09-11T17:37:18;0.80;;;0.80;;
67051;SDS011;53957;47.222;18.670;2022-09-11T17:40:21;1.23;;;1.10;;
67051;SDS011;53957;47.222;18.670;2022-09-11T17:43:25;1.08;;;1.00;;
67051;SDS011;53957;47.222;18.670;2022-09-11T17:46:28;1.70;;;1.60;;
67051;SDS011;53957;47.222;18.670;2022-09-11T17:49:31;0.75;;;0.75;;
67051;SDS011;53957;47.222;18.670;2022-09-11T17:52:34;0.90;;;0.90;;
67051;SDS011;53957;47.222;18.670;2022-09-11T17:55:39;0.70;;;0.70;;
67051;SDS011;53957;47.222;18.670;2022-09-11T18:05:16;0.85;;;0.85;;
67051;SDS011;53957;47.222;18.670;2022-09-11T18:08:19;0.80;;;0.80;;
67051;SDS011;53957;47.222;18.670;2022-09-11T18:11:23;2.30;;;1.02;;
67051;SDS011;53957;47.222;18.670;2022-09-11T18:14:27;0.80;;;0.80;;
67051;SDS011;53957;47.222;18.670;2022-09-11T18:17:31;0.90;;;0.90;;
67051;SDS011;53957;47.222;18.670;2022-09-11T18:20:34;0.88;;;0.88;;
67051;SDS011;53957;47.222;18.670;2022-09-11T18:23:38;1.50;;;0.90;;
67051;SDS011;53957;47.222;18.670;2022-09-11T18:26:44;0.65;;;0.65;;
67051;SDS011;53957;47.222;18.670;2022-09-11T18:29:51;1.95;;;0.88;;
67051;SDS011;53957;47.222;18.670;2022-09-11T18:32:54;0.90;;;0.90;;
67051;SDS011;53957;47.222;18.670;2022-09-11T18:36:04;1.10;;;0.98;;
67051;SDS011;53957;47.222;18.670;2022-09-11T18:39:10;0.85;;;0.85;;
67051;SDS011;53957;47.222;18.670;2022-09-11T18:42:15;0.85;;;0.85;;
67051;SDS011;53957;47.222;18.670;2022-09-11T18:45:19;1.20;;;1.10;;
67051;SDS011;53957;47.222;18.670;2022-09-11T18:48:22;1.00;;;1.00;;
67051;SDS011;53957;47.222;18.670;2022-09-11T18:51:25;1.05;;;0.90;;
67051;SDS011;53957;47.222;18.670;2022-09-11T18:54:29;0.90;;;0.90;;
67051;SDS011;53957;47.222;18.670;2022-09-11T18:57:32;1.00;;;1.00;;
67051;SDS011;53957;47.222;18.670;2022-09-11T19:00:42;1.08;;;1.08;;
67051;SDS011;53957;47.222;18.670;2022-09-11T19:03:45;0.80;;;0.80;;
67051;SDS011;53957;47.222;18.670;2022-09-11T19:06:48;0.93;;;0.93;;
67051;SDS011;53957;47.222;18.670;2022-09-11T19:09:51;1.15;;;1.08;;
67051;SDS011;53957;47.222;18.670;2022-09-11T19:12:55;1.05;;;1.05;;
67051;SDS011;53957;47.222;18.670;2022-09-11T19:15:58;2.75;;;1.10;;
67051;SDS011;53957;47.222;18.670;2022-09-11T19:19:02;0.90;;;0.90;;
67051;SDS011;53957;47.222;18.670;2022-09-11T19:22:05;0.77;;;0.73;;
67051;SDS011;53957;47.222;18.670;2022-09-11T19:25:11;2.37;;;1.70;;
67051;SDS011;53957;47.222;18.670;2022-09-11T19:28:15;1.80;;;1.05;;
67051;SDS011;53957;47.222;18.670;2022-09-11T19:31:19;0.90;;;0.90;;
67051;SDS011;53957;47.222;18.670;2022-09-11T19:34:31;1.10;;;0.93;;
67051;SDS011;53957;47.222;18.670;2022-09-11T19:37:40;1.10;;;1.10;;
67051;SDS011;53957;47.222;18.670;2022-09-11T19:40:43;0.70;;;0.70;;
67051;SDS011;53957;47.222;18.670;2022-09-11T19:43:46;3.60;;;1.00;;
67051;SDS011;53957;47.222;18.670;2022-09-11T19:46:49;0.85;;;0.85;;
67051;SDS011;53957;47.222;18.670;2022-09-11T19:49:55;0.90;;;0.90;;
67051;SDS011;53957;47.222;18.670;2022-09-11T19:52:57;1.50;;;0.98;;
67051;SDS011;53957;47.222;18.670;2022-09-11T19:56:02;1.20;;;1.20;;
67051;SDS011;53957;47.222;18.670;2022-09-11T19:59:07;1.10;;;1.10;;
67051;SDS011;53957;47.222;18.670;2022-09-11T20:02:10;0.90;;;0.90;;
67051;SDS011;53957;47.222;18.670;2022-09-11T20:05:14;1.08;;;1.08;;
67051;SDS011;53957;47.222;18.670;2022-09-11T20:08:17;1.10;;;1.10;;
67051;SDS011;53957;47.222;18.670;2022-09-11T20:11:21;1.27;;;1.12;;
67051;SDS011;53957;47.222;18.670;2022-09-11T20:14:26;2.20;;;1.20;;
67051;SDS011;53957;47.222;18.670;2022-09-11T20:17:30;1.08;;;1.05;;
67051;SDS011;53957;47.222;18.670;2022-09-11T20:20:34;1.00;;;1.00;;
67051;SDS011;53957;47.222;18.670;2022-09-11T20:23:37;1.00;;;1.00;;
67051;SDS011;53957;47.222;18.670;2022-09-11T20:26:41;1.33;;;1.20;;
67051;SDS011;53957;47.222;18.670;2022-09-11T20:29:44;1.27;;;1.25;;
67051;SDS011;53957;47.222;18.670;2022-09-11T20:32:47;3.78;;;1.23;;
67051;SDS011;53957;47.222;18.670;2022-09-11T20:35:50;1.23;;;1.23;;
67051;SDS011;53957;47.222;18.670;2022-09-11T20:38:53;1.30;;;1.30;;
67051;SDS011;53957;47.222;18.670;2022-09-11T20:41:57;1.30;;;1.30;;
67051;SDS011;53957;47.222;18.670;2022-09-11T20:45:02;1.70;;;1.37;;
67051;SDS011;53957;47.222;18.670;2022-09-11T20:48:05;1.23;;;1.23;;
67051;SDS011;53957;47.222;18.670;2022-09-11T20:51:10;1.35;;;1.35;;
67051;SDS011;53957;47.222;18.670;2022-09-11T20:54:13;1.30;;;1.30;;
67051;SDS011;53957;47.222;18.670;2022-09-11T20:57:16;1.50;;;1.40;;
67051;SDS011;53957;47.222;18.670;2022-09-11T21:00:19;1.33;;;1.30;;
67051;SDS011;53957;47.222;18.670;2022-09-11T21:03:22;1.25;;;1.23;;
67051;SDS011;53957;47.222;18.670;2022-09-11T21:06:27;1.98;;;1.70;;
67051;SDS011;53957;47.222;18.670;2022-09-11T21:09:32;1.40;;;1.30;;
67051;SDS011;53957;47.222;18.670;2022-09-11T21:12:35;1.37;;;1.30;;
67051;SDS011;53957;47.222;18.670;2022-09-11T21:15:42;1.27;;;1.27;;
67051;SDS011;53957;47.222;18.670;2022-09-11T21:18:47;1.30;;;1.30;;
67051;SDS011;53957;47.222;18.670;2022-09-11T21:21:57;1.60;;;1.50;;
67051;SDS011;53957;47.222;18.670;2022-09-11T21:25:00;1.58;;;1.48;;
67051;SDS011;53957;47.222;18.670;2022-09-11T21:28:03;1.45;;;1.40;;
67051;SDS011;53957;47.222;18.670;2022-09-11T21:31:06;2.50;;;1.45;;
67051;SDS011;53957;47.222;18.670;2022-09-11T21:34:09;3.12;;;1.35;;
67051;SDS011;53957;47.222;18.670;2022-09-11T21:37:12;1.60;;;1.60;;
67051;SDS011;53957;47.222;18.670;2022-09-11T21:40:15;1.37;;;1.25;;
67051;SDS011;53957;47.222;18.670;2022-09-11T21:43:18;1.80;;;1.70;;
67051;SDS011;53957;47.222;18.670;2022-09-11T21:46:21;1.37;;;1.27;;
67051;SDS011;53957;47.222;18.670;2022-09-11T21:49:24;1.87;;;1.77;;
67051;SDS011;53957;47.222;18.670;2022-09-11T21:52:28;1.58;;;1.48;;
67051;SDS011;53957;47.222;18.670;2022-09-11T21:55:35;1.70;;;1.60;;
67051;SDS011;53957;47.222;18.670;2022-09-11T21:58:45;1.60;;;1.50;;
67051;SDS011;53957;47.222;18.670;2022-09-11T22:01:49;1.30;;;1.30;;
67051;SDS011;53957;47.222;18.670;2022-09-11T22:04:52;1.42;;;1.33;;
67051;SDS011;53957;47.222;18.670;2022-09-11T22:07:54;1.30;;;1.30;;
67051;SDS011;53957;47.222;18.670;2022-09-11T22:10:59;1.70;;;1.60;;
67051;SDS011;53957;47.222;18.670;2022-09-11T22:14:06;1.62;;;1.55;;
67051;SDS011;53957;47.222;18.670;2022-09-11T22:17:09;3.83;;;1.40;;
67051;SDS011;53957;47.222;18.670;2022-09-11T22:20:13;1.83;;;1.67;;
67051;SDS011;53957;47.222;18.670;2022-09-11T22:23:17;1.50;;;1.40;;
67051;SDS011;53957;47.222;18.670;2022-09-11T22:26:24;1.42;;;1.42;;
67051;SDS011;53957;47.222;18.670;2022-09-11T22:29:34;1.23;;;1.23;;
67051;SDS011;53957;47.222;18.670;2022-09-11T22:32:38;1.90;;;1.80;;
67051;SDS011;53957;47.222;18.670;2022-09-11T22:35:41;1.48;;;1.35;;
67051;SDS011;53957;47.222;18.670;2022-09-11T22:38:49;2.20;;;1.80;;
67051;SDS011;53957;47.222;18.670;2022-09-11T22:41:52;1.95;;;1.85;;
67051;SDS011;53957;47.222;18.670;2022-09-11T22:44:55;2.00;;;1.90;;
67051;SDS011;53957;47.222;18.670;2022-09-11T22:47:58;1.80;;;1.70;;
67051;SDS011;53957;47.222;18.670;2022-09-11T22:51:01;2.03;;;1.92;;
67051;SDS011;53957;47.222;18.670;2022-09-11T22:54:04;1.67;;;1.60;;
67051;SDS011;53957;47.222;18.670;2022-09-11T22:57:09;1.80;;;1.70;;
67051;SDS011;53957;47.222;18.670;2022-09-11T23:00:12;2.12;;;1.90;;
67051;SDS011;53957;47.222;18.670;2022-09-11T23:03:16;2.25;;;1.92;;
67051;SDS011;53957;47.222;18.670;2022-09-11T23:06:20;2.17;;;1.98;;
67051;SDS011;53957;47.222;18.670;2022-09-11T23:09:43;1.80;;;1.70;;
67051;SDS011;53957;47.222;18.670;2022-09-11T23:12:46;2.00;;;1.90;;
67051;SDS011;53957;47.222;18.670;2022-09-11T23:15:48;2.40;;;2.20;;
67051;SDS011;53957;47.222;18.670;2022-09-11T23:18:52;2.60;;;2.30;;
67051;SDS011;53957;47.222;18.670;2022-09-11T23:21:56;2.70;;;2.40;;
67051;SDS011;53957;47.222;18.670;2022-09-11T23:24:58;2.53;;;2.37;;
67051;SDS011;53957;47.222;18.670;2022-09-11T23:28:01;4.32;;;2.70;;
67051;SDS011;53957;47.222;18.670;2022-09-11T23:31:18;3.90;;;3.15;;
67051;SDS011;53957;47.222;18.670;2022-09-11T23:34:22;6.43;;;2.90;;
67051;SDS011;53957;47.222;18.670;2022-09-11T23:37:25;3.03;;;2.83;;
67051;SDS011;53957;47.222;18.670;2022-09-11T23:40:28;4.20;;;3.35;;
67051;SDS011;53957;47.222;18.670;2022-09-11T23:43:35;3.55;;;3.25;;
67051;SDS011;53957;47.222;18.670;2022-09-11T23:46:37;5.43;;;3.78;;
67051;SDS011;53957;47.222;18.670;2022-09-11T23:49:40;5.60;;;4.03;;
67051;SDS011;53957;47.222;18.670;2022-09-11T23:52:44;3.80;;;3.55;;
67051;SDS011;53957;47.222;18.670;2022-09-11T23:55:48;5.07;;;4.68;;
67051;SDS011;53957;47.222;18.670;2022-09-11T23:58:52;4.60;;;4.20;;
